YGX weather

Gillam Airport
Gillam, Manitoba, Canada

Public forecast

Using degrees Celsius for public forecast. Weather courtesy of forecast.io.

METAR (pilot weather report)

Retrieved 2019/02/15 23:00 UTC (4 minutes ago):

CYGX 152300Z 31008KT 15SM FEW020 FEW200 M19/M24 A3010 RMK ST1CI1 CI TR SLP215

TAF (pilot weather forecast)

Retrieved 2019/02/15 19:39 UTC (3 hours ago):

TAF CYGX 151838Z 1519/1607 29008KT P6SM SCT020 TEMPO 1519/1524 P6SM -SN BKN020 FM160000 32006KT P6SM BKN020 TEMPO 1600/1607 5SM -SN RMK NXT FCST BY 160100Z